createdAt,value
2018-01-01T00:00:05.134Z,0
2018-01-01T00:01:14.325Z,0
2018-01-01T00:02:23.261Z,0
2018-01-01T00:03:32.453Z,0
2018-01-01T00:04:41.381Z,0
2018-01-01T00:05:51.096Z,0
2018-01-01T00:06:59.773Z,0
2018-01-01T00:08:08.710Z,0
2018-01-01T00:09:17.646Z,0
2018-01-01T00:10:26.832Z,0
2018-01-01T00:11:36.038Z,0
2018-01-01T00:12:44.968Z,0
2018-01-01T00:13:54.159Z,0
2018-01-01T00:15:02.830Z,0
2018-01-01T00:16:12.281Z,0
2018-01-01T00:17:20.967Z,0
2018-01-01T00:18:30.158Z,0
2018-01-01T00:19:39.086Z,0
2018-01-01T00:20:47.756Z,0
2018-01-01T00:21:56.956Z,0
2018-01-01T00:23:05.902Z,0
2018-01-01T00:24:14.582Z,0
2018-01-01T00:25:23.279Z,0
2018-01-01T00:26:32.495Z,0
2018-01-01T00:27:41.700Z,0
2018-01-01T00:28:50.889Z,0
2018-01-01T00:29:59.825Z,0
2018-01-01T00:31:08.751Z,0
2018-01-01T00:32:17.672Z,0
2018-01-01T00:33:26.342Z,0
2018-01-01T00:34:35.810Z,0
2018-01-01T00:35:45.269Z,0
2018-01-01T00:36:54.472Z,0
2018-01-01T00:38:03.421Z,0
2018-01-01T00:39:12.095Z,0
2018-01-01T00:40:21.036Z,0
2018-01-01T00:41:29.988Z,0
2018-01-01T00:42:38.936Z,0
2018-01-01T00:43:48.381Z,0
2018-01-01T00:44:57.574Z,0
2018-01-01T00:46:06.502Z,0
2018-01-01T00:47:15.710Z,0
2018-01-01T00:48:24.651Z,0
2018-01-01T00:49:33.924Z,0
2018-01-01T00:50:42.854Z,0
2018-01-01T00:51:51.782Z,0
2018-01-01T00:53:00.455Z,0
2018-01-01T00:54:09.383Z,0
2018-01-01T00:55:18.579Z,0
2018-01-01T00:56:28.315Z,0
2018-01-01T00:57:37.068Z,0
2018-01-01T00:58:46.271Z,4
2018-01-01T00:59:55.489Z,4
2018-01-01T01:01:04.431Z,4
2018-01-01T01:02:13.121Z,4
2018-01-01T01:03:22.589Z,4
2018-01-01T01:04:31.789Z,4
2018-01-01T01:05:40.985Z,0
2018-01-01T01:06:49.661Z,0
2018-01-01T01:07:58.332Z,0
2018-01-01T01:09:07.005Z,0
2018-01-01T01:10:15.682Z,0
2018-01-01T01:11:24.614Z,0
2018-01-01T01:12:33.286Z,0
2018-01-01T01:13:42.472Z,0
2018-01-01T01:14:52.104Z,0
2018-01-01T01:16:00.776Z,0
2018-01-01T01:17:09.454Z,0
2018-01-01T01:18:18.919Z,0
2018-01-01T01:19:27.863Z,0
2018-01-01T01:20:36.791Z,0
2018-01-01T01:21:45.724Z,0
2018-01-01T01:22:54.709Z,0
2018-01-01T01:24:03.646Z,0
2018-01-01T01:25:12.332Z,0
2018-01-01T01:26:21.525Z,0
2018-01-01T01:27:30.209Z,0
2018-01-01T01:28:38.884Z,0
2018-01-01T01:29:47.819Z,0
2018-01-01T01:30:56.759Z,0
2018-01-01T01:32:06.233Z,0
2018-01-01T01:33:14.909Z,0
2018-01-01T01:34:23.591Z,0
2018-01-01T01:35:32.262Z,0
2018-01-01T01:36:41.466Z,0
2018-01-01T01:37:50.402Z,0
2018-01-01T01:38:59.074Z,0
2018-01-01T01:40:08.008Z,0
2018-01-01T01:41:17.725Z,0
2018-01-01T01:42:26.662Z,0
2018-01-01T01:43:36.124Z,0
2018-01-01T01:44:44.815Z,0
2018-01-01T01:45:53.564Z,0
2018-01-01T01:47:02.239Z,0
2018-01-01T01:48:11.179Z,0
2018-01-01T01:49:20.119Z,0
2018-01-01T01:50:29.055Z,0
2018-01-01T01:51:37.766Z,0
2018-01-01T01:52:46.769Z,0
2018-01-01T01:53:55.478Z,0
2018-01-01T01:55:04.403Z,0
2018-01-01T01:56:13.340Z,0
2018-01-01T01:57:22.282Z,0
2018-01-01T01:58:30.949Z,0
2018-01-01T01:59:39.885Z,0
2018-01-01T02:00:48.572Z,0
2018-01-01T02:01:57.769Z,0
2018-01-01T02:03:06.443Z,0
2018-01-01T02:04:15.402Z,0
2018-01-01T02:05:24.332Z,0
2018-01-01T02:06:33.007Z,0
2018-01-01T02:07:41.940Z,0
2018-01-01T02:08:50.869Z,0
2018-01-01T02:10:00.062Z,0
2018-01-01T02:11:09.264Z,0
2018-01-01T02:12:18.708Z,0
2018-01-01T02:13:27.672Z,0
2018-01-01T02:14:36.344Z,0
2018-01-01T02:15:45.037Z,0
2018-01-01T02:16:53.953Z,0
2018-01-01T02:18:02.887Z,0
2018-01-01T02:19:12.078Z,0
2018-01-01T02:20:21.004Z,0
2018-01-01T02:21:29.943Z,0
2018-01-01T02:22:38.619Z,0
2018-01-01T02:23:47.565Z,0
2018-01-01T02:24:56.511Z,0
2018-01-01T02:26:05.439Z,0
2018-01-01T02:27:14.391Z,0
2018-01-01T02:28:23.060Z,0
2018-01-01T02:31:13.036Z,0
2018-01-01T02:32:22.237Z,0
2018-01-01T02:33:30.906Z,0
2018-01-01T02:34:39.591Z,0
2018-01-01T02:35:48.260Z,0
2018-01-01T02:36:57.196Z,0
2018-01-01T02:38:06.129Z,0
2018-01-01T02:39:15.074Z,0
2018-01-01T02:40:23.762Z,0
2018-01-01T02:41:32.964Z,0
2018-01-01T02:42:41.894Z,0
2018-01-01T02:43:51.087Z,0
2018-01-01T02:45:00.322Z,0
2018-01-01T02:46:09.517Z,0
2018-01-01T02:47:18.195Z,0
2018-01-01T02:48:27.398Z,0
2018-01-01T02:49:36.075Z,0
2018-01-01T02:50:45.002Z,0
2018-01-01T02:51:54.215Z,0
2018-01-01T02:53:03.415Z,0
2018-01-01T02:54:12.352Z,0
2018-01-01T02:55:21.295Z,0
2018-01-01T02:56:30.497Z,0
2018-01-01T02:57:39.953Z,0
2018-01-01T02:58:48.636Z,0
2018-01-01T02:59:58.111Z,0
2018-01-01T03:01:07.054Z,0
2018-01-01T03:02:16.269Z,0
2018-01-01T03:03:25.739Z,0
2018-01-01T03:04:34.674Z,0
2018-01-01T03:05:43.866Z,0
2018-01-01T03:06:52.810Z,0
2018-01-01T03:08:01.749Z,0
2018-01-01T03:09:10.689Z,0
2018-01-01T03:10:20.146Z,0
2018-01-01T03:11:29.613Z,0
2018-01-01T03:12:38.821Z,0
2018-01-01T03:13:47.500Z,0
2018-01-01T03:14:56.432Z,0
2018-01-01T03:16:05.128Z,0
2018-01-01T03:17:14.072Z,0
2018-01-01T03:18:23.018Z,0
2018-01-01T03:19:32.214Z,0
2018-01-01T03:20:41.161Z,0
2018-01-01T03:21:50.100Z,0
2018-01-01T03:22:59.042Z,0
2018-01-01T03:24:08.247Z,0
2018-01-01T03:25:17.449Z,0
2018-01-01T03:26:26.399Z,0
2018-01-01T03:27:35.333Z,0
2018-01-01T03:28:44.266Z,0
2018-01-01T03:29:53.211Z,0
2018-01-01T03:31:01.880Z,0
2018-01-01T03:32:11.077Z,0
2018-01-01T03:33:19.768Z,0
2018-01-01T03:34:28.971Z,0
2018-01-01T03:35:37.913Z,0
2018-01-01T03:36:47.113Z,0
2018-01-01T03:37:56.049Z,0
2018-01-01T03:39:05.031Z,0
2018-01-01T03:40:14.222Z,0
2018-01-01T03:41:23.219Z,0
2018-01-01T03:42:32.431Z,0
2018-01-01T03:43:41.377Z,0
2018-01-01T03:44:50.313Z,0
2018-01-01T03:45:59.245Z,0
2018-01-01T03:47:08.700Z,0
2018-01-01T03:48:17.916Z,0
2018-01-01T03:49:27.117Z,0
2018-01-01T03:50:36.315Z,0
2018-01-01T03:51:45.524Z,0
2018-01-01T03:52:54.748Z,0
2018-01-01T03:54:03.413Z,0
2018-01-01T03:55:12.362Z,0
2018-01-01T03:56:21.295Z,0
2018-01-01T03:57:30.238Z,0
2018-01-01T03:58:39.194Z,0
2018-01-01T03:59:48.453Z,0
2018-01-01T04:00:57.128Z,0
2018-01-01T04:02:06.318Z,0
2018-01-01T04:03:15.250Z,0
2018-01-01T04:04:24.185Z,0
2018-01-01T04:05:33.393Z,0
2018-01-01T04:06:42.330Z,0
2018-01-01T04:07:50.998Z,0
2018-01-01T04:08:59.675Z,0
2018-01-01T04:10:08.357Z,0
2018-01-01T04:11:17.030Z,0
2018-01-01T04:12:25.705Z,0
2018-01-01T04:13:34.385Z,0
2018-01-01T04:14:43.838Z,0
2018-01-01T04:15:53.039Z,0
2018-01-01T04:17:01.986Z,0
2018-01-01T04:18:10.668Z,0
2018-01-01T04:19:20.120Z,0
2018-01-01T04:20:29.055Z,0
2018-01-01T04:21:38.508Z,0
2018-01-01T04:22:47.696Z,0
2018-01-01T04:23:56.373Z,0
2018-01-01T04:25:05.823Z,0
2018-01-01T04:26:15.021Z,0
2018-01-01T04:27:23.965Z,0
2018-01-01T04:28:32.649Z,0
2018-01-01T04:29:41.912Z,0
2018-01-01T04:30:50.852Z,0
2018-01-01T04:31:59.545Z,0
2018-01-01T04:33:08.484Z,0
2018-01-01T04:34:17.690Z,0
2018-01-01T04:35:27.148Z,0
2018-01-01T04:36:35.825Z,0
2018-01-01T04:37:45.019Z,0
2018-01-01T04:38:53.956Z,0
2018-01-01T04:40:03.410Z,0
2018-01-01T04:41:12.080Z,0
2018-01-01T04:42:21.279Z,0
2018-01-01T04:43:30.214Z,0
2018-01-01T04:44:38.889Z,0
2018-01-01T04:45:48.089Z,0
2018-01-01T04:46:56.765Z,0
2018-01-01T04:48:05.702Z,0
2018-01-01T04:49:14.440Z,0
2018-01-01T04:50:23.513Z,0
2018-01-01T04:51:32.249Z,0
2018-01-01T04:52:41.183Z,0
2018-01-01T04:53:50.117Z,0
2018-01-01T04:54:59.045Z,0
2018-01-01T04:56:08.241Z,0
2018-01-01T04:57:17.966Z,0
2018-01-01T04:58:26.901Z,0
2018-01-01T04:59:36.106Z,0
2018-01-01T05:00:45.573Z,0
2018-01-01T05:01:54.773Z,0
2018-01-01T05:03:04.236Z,0
2018-01-01T05:04:13.427Z,0
2018-01-01T05:05:22.363Z,0
2018-01-01T05:06:31.041Z,0
2018-01-01T05:07:40.496Z,0
2018-01-01T05:08:49.694Z,0
2018-01-01T05:09:58.908Z,0
2018-01-01T05:11:08.368Z,0
2018-01-01T05:12:17.583Z,0
2018-01-01T05:13:26.756Z,0
2018-01-01T05:14:35.691Z,0
2018-01-01T05:15:44.368Z,0
2018-01-01T05:16:53.561Z,0
2018-01-01T05:18:02.497Z,0
2018-01-01T05:19:12.007Z,0
2018-01-01T05:20:21.198Z,0
2018-01-01T05:21:30.398Z,0
2018-01-01T05:22:39.586Z,0
2018-01-01T05:23:48.788Z,0
2018-01-01T05:24:58.568Z,0
2018-01-01T05:26:08.280Z,0
2018-01-01T05:27:17.223Z,0
2018-01-01T05:28:26.218Z,0
2018-01-01T05:29:35.170Z,0
2018-01-01T05:30:44.098Z,0
2018-01-01T05:31:53.294Z,0
2018-01-01T05:33:02.494Z,0
2018-01-01T05:34:11.428Z,0
2018-01-01T05:35:20.355Z,0
2018-01-01T05:36:29.293Z,0
2018-01-01T05:37:38.225Z,0
2018-01-01T05:38:46.910Z,0
2018-01-01T05:39:55.583Z,0
2018-01-01T05:41:04.520Z,0
2018-01-01T05:42:13.980Z,0
2018-01-01T05:43:23.447Z,0
2018-01-01T05:44:32.642Z,0
2018-01-01T05:45:41.313Z,0
2018-01-01T05:46:50.508Z,0
2018-01-01T05:47:59.443Z,0
2018-01-01T05:49:08.675Z,0
2018-01-01T05:50:17.607Z,0
2018-01-01T05:51:27.109Z,0
2018-01-01T05:52:36.293Z,0
2018-01-01T05:53:44.969Z,0
2018-01-01T05:54:54.160Z,0
2018-01-01T05:56:03.091Z,0
2018-01-01T05:57:11.787Z,0
2018-01-01T05:58:20.458Z,0
2018-01-01T05:59:29.909Z,0
2018-01-01T06:00:39.095Z,0
2018-01-01T06:01:48.290Z,0
2018-01-01T06:02:56.964Z,0
2018-01-01T06:04:05.897Z,0
2018-01-01T06:05:15.090Z,0
2018-01-01T06:06:24.283Z,0
2018-01-01T06:07:32.965Z,0
2018-01-01T06:08:41.915Z,0
2018-01-01T06:09:50.856Z,0
2018-01-01T06:10:59.534Z,0
2018-01-01T06:12:08.477Z,0
2018-01-01T06:13:17.671Z,0
2018-01-01T06:14:26.871Z,0
2018-01-01T06:15:36.068Z,0
2018-01-01T06:16:45.000Z,0
2018-01-01T06:17:54.213Z,0
2018-01-01T06:19:03.164Z,0
2018-01-01T06:20:12.353Z,0
2018-01-01T06:21:21.538Z,0
2018-01-01T06:22:30.996Z,0
2018-01-01T06:23:40.202Z,0
2018-01-01T06:24:49.392Z,0
2018-01-01T06:25:58.647Z,0
2018-01-01T06:27:07.572Z,0
2018-01-01T06:28:16.237Z,0
2018-01-01T06:29:25.436Z,0
2018-01-01T06:30:34.623Z,0
2018-01-01T06:31:43.628Z,0
2018-01-01T06:32:52.555Z,0
2018-01-01T06:34:01.494Z,0
2018-01-01T06:35:10.707Z,0
2018-01-01T06:36:19.640Z,0
2018-01-01T06:37:28.845Z,0
2018-01-01T06:38:37.777Z,0
2018-01-01T06:39:46.974Z,0
2018-01-01T06:40:56.445Z,0
2018-01-01T06:42:05.097Z,0
2018-01-01T06:43:13.770Z,0
2018-01-01T06:44:23.223Z,0
2018-01-01T06:45:32.147Z,0
2018-01-01T06:46:41.074Z,0
2018-01-01T06:47:50.255Z,0
2018-01-01T06:48:59.448Z,0
2018-01-01T06:50:08.640Z,0
2018-01-01T06:51:17.300Z,0
2018-01-01T06:52:25.982Z,0
2018-01-01T06:53:35.190Z,0
2018-01-01T06:54:44.199Z,0
2018-01-01T06:55:53.133Z,0
2018-01-01T06:57:02.328Z,0
2018-01-01T06:58:11.791Z,0
2018-01-01T06:59:20.471Z,0
2018-01-01T07:00:29.667Z,0
2018-01-01T07:01:38.866Z,0
2018-01-01T07:02:48.071Z,0
2018-01-01T07:03:56.734Z,0
2018-01-01T07:05:05.670Z,0
2018-01-01T07:06:14.597Z,0
2018-01-01T07:07:23.790Z,4
2018-01-01T07:08:32.993Z,4
2018-01-01T07:09:42.440Z,4
2018-01-01T07:10:51.380Z,4
2018-01-01T07:12:00.841Z,4
2018-01-01T07:13:09.771Z,4
2018-01-01T07:14:18.972Z,4
2018-01-01T07:15:27.913Z,4
2018-01-01T07:16:37.121Z,4
2018-01-01T07:17:46.312Z,4
2018-01-01T07:18:54.985Z,0
2018-01-01T07:20:03.660Z,4
2018-01-01T07:21:12.602Z,4
2018-01-01T07:22:22.076Z,8
2018-01-01T07:23:30.749Z,12
2018-01-01T07:24:39.686Z,16
2018-01-01T07:25:48.623Z,16
2018-01-01T07:26:57.815Z,20
2018-01-01T07:28:07.260Z,20
2018-01-01T07:29:16.456Z,28
2018-01-01T07:30:25.402Z,28
2018-01-01T07:31:34.347Z,36
2018-01-01T07:32:43.027Z,44
2018-01-01T07:33:52.219Z,44
2018-01-01T07:35:01.422Z,52
2018-01-01T07:36:10.354Z,60
2018-01-01T07:37:19.301Z,76
2018-01-01T07:38:28.518Z,84
2018-01-01T07:39:37.448Z,96
2018-01-01T07:40:47.187Z,108
2018-01-01T07:41:55.868Z,112
2018-01-01T07:43:04.814Z,120
2018-01-01T07:44:14.262Z,120
2018-01-01T07:45:22.932Z,120
2018-01-01T07:46:31.878Z,132
2018-01-01T07:47:40.557Z,136
2018-01-01T07:48:49.752Z,140
2018-01-01T07:49:59.222Z,140
2018-01-01T07:51:08.686Z,132
2018-01-01T07:52:17.882Z,128
2018-01-01T07:53:27.089Z,128
2018-01-01T07:54:36.540Z,140
2018-01-01T07:55:45.476Z,144
2018-01-01T07:56:54.407Z,168
2018-01-01T07:58:03.091Z,196
2018-01-01T07:59:12.295Z,196
2018-01-01T08:00:22.014Z,208
2018-01-01T08:01:30.975Z,204
2018-01-01T08:02:39.908Z,200
2018-01-01T08:03:48.605Z,188
2018-01-01T08:04:57.295Z,172
2018-01-01T08:06:06.231Z,164
2018-01-01T08:07:15.684Z,148
2018-01-01T08:08:24.629Z,156
2018-01-01T08:09:33.824Z,188
2018-01-01T08:10:42.758Z,188
2018-01-01T08:11:51.950Z,204
2018-01-01T08:13:00.891Z,212
2018-01-01T08:14:10.086Z,228
2018-01-01T08:15:19.292Z,264
2018-01-01T08:16:28.485Z,308
2018-01-01T08:17:37.953Z,296
2018-01-01T08:18:47.191Z,308
2018-01-01T08:19:55.864Z,288
2018-01-01T08:21:04.807Z,292
2018-01-01T08:22:14.516Z,256
2018-01-01T08:23:23.979Z,280
2018-01-01T08:24:33.189Z,284
2018-01-01T08:25:42.386Z,224
2018-01-01T08:26:51.320Z,176
2018-01-01T08:28:00.297Z,180
2018-01-01T08:29:08.972Z,180
2018-01-01T08:30:17.641Z,148
2018-01-01T08:31:26.840Z,104
2018-01-01T08:32:38.986Z,128
2018-01-01T08:33:48.173Z,148
2018-01-01T08:34:57.099Z,128
2018-01-01T08:36:06.031Z,128
2018-01-01T08:37:15.225Z,128
2018-01-01T08:38:24.423Z,92
2018-01-01T08:39:33.622Z,148
2018-01-01T08:40:42.820Z,164
2018-01-01T08:41:51.505Z,156
2018-01-01T08:43:00.707Z,192
2018-01-01T08:44:09.894Z,200
2018-01-01T08:45:18.831Z,244
2018-01-01T08:46:28.030Z,264
2018-01-01T08:47:37.222Z,208
2018-01-01T08:48:46.173Z,128
2018-01-01T08:49:55.366Z,96
2018-01-01T08:51:04.039Z,76
2018-01-01T08:52:12.722Z,56
2018-01-01T08:53:21.658Z,76
2018-01-01T08:54:30.597Z,92
2018-01-01T08:55:39.267Z,84
2018-01-01T08:56:48.201Z,96
2018-01-01T08:57:57.137Z,116
2018-01-01T08:59:06.073Z,160
2018-01-01T09:00:14.747Z,216
2018-01-01T09:01:23.688Z,220
2018-01-01T09:02:32.882Z,216
2018-01-01T09:03:41.817Z,152
2018-01-01T09:04:51.020Z,96
2018-01-01T09:06:00.218Z,92
2018-01-01T09:07:08.911Z,100
2018-01-01T09:08:17.845Z,132
2018-01-01T09:09:26.517Z,160
2018-01-01T09:10:35.445Z,268
2018-01-01T09:11:44.387Z,320
2018-01-01T09:12:53.345Z,296
2018-01-01T09:14:02.091Z,192
2018-01-01T09:15:11.038Z,300
2018-01-01T09:16:19.968Z,564
2018-01-01T09:17:28.910Z,360
2018-01-01T09:18:38.413Z,228
2018-01-01T09:19:47.607Z,196
2018-01-01T09:20:56.577Z,324
2018-01-01T09:22:05.792Z,344
2018-01-01T09:23:14.723Z,216
2018-01-01T09:24:23.666Z,232
2018-01-01T09:25:33.131Z,344
2018-01-01T09:26:42.070Z,312
2018-01-01T09:27:51.005Z,264
2018-01-01T09:28:59.981Z,304
2018-01-01T09:30:09.147Z,360
2018-01-01T09:31:18.626Z,464
2018-01-01T09:32:27.561Z,572
2018-01-01T09:33:36.512Z,720
2018-01-01T09:34:45.728Z,652
2018-01-01T09:35:54.568Z,568
2018-01-01T09:37:03.725Z,544
2018-01-01T09:38:13.734Z,548
2018-01-01T09:39:23.341Z,544
2018-01-01T09:40:32.348Z,596
2018-01-01T09:41:41.540Z,700
2018-01-01T09:42:50.229Z,980
2018-01-01T09:43:59.278Z,748
2018-01-01T09:45:08.491Z,740
2018-01-01T09:46:17.176Z,812
2018-01-01T09:47:26.688Z,928
2018-01-01T09:48:35.631Z,1032
2018-01-01T09:49:44.937Z,844
2018-01-01T09:50:53.958Z,660
2018-01-01T09:52:02.638Z,724
2018-01-01T09:53:11.571Z,720
2018-01-01T09:54:20.259Z,936
2018-01-01T09:55:29.003Z,1124
2018-01-01T09:56:37.755Z,1056
2018-01-01T09:57:47.063Z,1012
2018-01-01T09:58:56.739Z,924
2018-01-01T10:00:06.192Z,764
2018-01-01T10:01:15.516Z,712
2018-01-01T10:02:24.715Z,624
2018-01-01T10:03:34.084Z,756
2018-01-01T10:04:43.014Z,1060
2018-01-01T10:05:51.949Z,916
2018-01-01T10:07:00.947Z,1036
2018-01-01T10:08:11.759Z,1108
2018-01-01T10:09:21.306Z,972
2018-01-01T10:10:29.979Z,660
2018-01-01T10:11:38.923Z,596
2018-01-01T10:12:48.390Z,652
2018-01-01T10:13:57.197Z,676
2018-01-01T10:15:06.483Z,620
2018-01-01T10:16:15.425Z,600
2018-01-01T10:17:24.357Z,584
2018-01-01T10:18:33.295Z,644
2018-01-01T10:19:42.044Z,616
2018-01-01T10:20:51.539Z,584
2018-01-01T10:22:01.003Z,612
2018-01-01T10:23:11.601Z,652
2018-01-01T10:24:20.817Z,768
2018-01-01T10:25:30.023Z,600
2018-01-01T10:26:38.957Z,564
2018-01-01T10:27:47.639Z,564
2018-01-01T10:28:57.621Z,596
2018-01-01T10:30:06.908Z,628
2018-01-01T10:31:15.581Z,592
2018-01-01T10:32:24.528Z,588
2018-01-01T10:33:33.466Z,620
2018-01-01T10:34:42.448Z,700
2018-01-01T10:35:51.373Z,680
2018-01-01T10:37:00.606Z,616
2018-01-01T10:38:10.077Z,588
2018-01-01T10:39:19.270Z,568
2018-01-01T10:40:28.215Z,560
2018-01-01T10:41:37.143Z,560
2018-01-01T10:42:46.096Z,560
2018-01-01T10:43:54.779Z,560
2018-01-01T10:45:03.708Z,564
2018-01-01T10:46:12.381Z,568
2018-01-01T10:47:21.087Z,568
2018-01-01T10:48:29.990Z,564
2018-01-01T10:49:38.920Z,564
2018-01-01T10:50:47.592Z,556
2018-01-01T10:51:56.533Z,564
2018-01-01T10:53:05.215Z,560
2018-01-01T10:54:14.159Z,560
2018-01-01T10:55:23.092Z,560
2018-01-01T10:56:32.017Z,556
2018-01-01T10:57:40.701Z,556
2018-01-01T10:58:49.374Z,560
2018-01-01T10:59:58.046Z,560
2018-01-01T11:01:06.983Z,560
2018-01-01T11:02:15.934Z,552
2018-01-01T11:03:24.881Z,568
2018-01-01T11:04:33.568Z,532
2018-01-01T11:05:43.099Z,600
2018-01-01T11:06:52.304Z,752
2018-01-01T11:08:01.500Z,840
2018-01-01T11:09:10.180Z,900
2018-01-01T11:10:19.385Z,836
2018-01-01T11:11:28.351Z,1048
2018-01-01T11:12:37.282Z,1188
2018-01-01T11:13:46.224Z,1088
2018-01-01T11:14:54.918Z,916
2018-01-01T11:16:03.860Z,1132
2018-01-01T11:17:12.789Z,924
2018-01-01T11:18:22.005Z,836
2018-01-01T11:19:30.946Z,848
2018-01-01T11:20:40.595Z,832
2018-01-01T11:21:49.541Z,748
2018-01-01T11:22:58.219Z,672
2018-01-01T11:24:06.908Z,688
2018-01-01T11:25:15.852Z,1104
2018-01-01T11:26:24.518Z,1136
2018-01-01T11:27:33.532Z,1136
2018-01-01T11:28:43.341Z,900
2018-01-01T11:29:52.360Z,784
2018-01-01T11:31:01.304Z,792
2018-01-01T11:32:10.500Z,824
2018-01-01T11:33:19.725Z,776
2018-01-01T11:34:28.917Z,656
2018-01-01T11:35:37.669Z,668
2018-01-01T11:36:47.155Z,712
2018-01-01T11:37:56.150Z,772
2018-01-01T11:39:05.084Z,864
2018-01-01T11:40:14.271Z,712
2018-01-01T11:41:23.227Z,1028
2018-01-01T11:42:32.304Z,1188
2018-01-01T11:43:41.246Z,972
2018-01-01T11:44:50.467Z,844
2018-01-01T11:45:59.949Z,724
2018-01-01T11:47:09.160Z,824
2018-01-01T11:48:18.897Z,940
2018-01-01T11:49:28.093Z,880
2018-01-01T11:50:37.274Z,756
2018-01-01T11:51:46.225Z,728
2018-01-01T11:52:55.151Z,852
2018-01-01T11:54:03.817Z,804
2018-01-01T11:55:12.504Z,632
2018-01-01T11:56:21.173Z,664
2018-01-01T11:57:31.009Z,640
2018-01-01T11:58:39.956Z,668
2018-01-01T11:59:49.009Z,644
2018-01-01T12:00:57.951Z,872
2018-01-01T12:02:08.113Z,948
2018-01-01T12:03:17.655Z,828
2018-01-01T12:04:26.337Z,848
2018-01-01T12:05:35.017Z,972
2018-01-01T12:06:43.785Z,1076
2018-01-01T12:07:52.718Z,1040
2018-01-01T12:09:01.925Z,860
2018-01-01T12:10:10.864Z,736
2018-01-01T12:11:19.814Z,684
2018-01-01T12:12:28.757Z,672
2018-01-01T12:13:37.962Z,676
2018-01-01T12:14:46.897Z,620
2018-01-01T12:15:55.829Z,624
2018-01-01T12:17:05.037Z,588
2018-01-01T12:18:13.988Z,548
2018-01-01T12:19:23.445Z,648
2018-01-01T12:20:32.124Z,704
2018-01-01T12:21:40.798Z,668
2018-01-01T12:22:49.744Z,636
2018-01-01T12:23:58.412Z,556
2018-01-01T12:25:07.085Z,528
2018-01-01T12:26:16.566Z,464
2018-01-01T12:27:25.467Z,432
2018-01-01T12:28:34.156Z,436
2018-01-01T12:29:43.601Z,440
2018-01-01T12:30:53.051Z,448
2018-01-01T12:32:02.238Z,440
2018-01-01T12:33:11.945Z,436
2018-01-01T12:34:20.618Z,452
2018-01-01T12:35:29.292Z,484
2018-01-01T12:36:38.228Z,492
2018-01-01T12:37:47.174Z,492
2018-01-01T12:38:56.373Z,500
2018-01-01T12:40:05.317Z,520
2018-01-01T12:41:14.261Z,536
2018-01-01T12:42:23.472Z,540
2018-01-01T12:43:32.961Z,516
2018-01-01T12:44:42.446Z,492
2018-01-01T12:45:51.668Z,504
2018-01-01T12:47:00.424Z,496
2018-01-01T12:48:09.407Z,504
2018-01-01T12:49:18.341Z,532
2018-01-01T12:50:27.534Z,508
2018-01-01T12:51:36.212Z,500
2018-01-01T12:52:45.146Z,520
2018-01-01T12:53:54.600Z,512
2018-01-01T12:55:03.275Z,448
2018-01-01T12:56:12.463Z,448
2018-01-01T12:57:21.669Z,464
2018-01-01T12:58:30.613Z,480
2018-01-01T12:59:39.804Z,548
2018-01-01T13:00:48.732Z,540
2018-01-01T13:01:57.466Z,552
2018-01-01T13:03:06.655Z,604
2018-01-01T13:04:15.598Z,632
2018-01-01T13:05:25.045Z,656
2018-01-01T13:06:33.986Z,644
2018-01-01T13:07:44.161Z,548
2018-01-01T13:08:53.426Z,456
2018-01-01T13:10:03.161Z,412
2018-01-01T13:11:12.715Z,444
2018-01-01T13:12:21.801Z,480
2018-01-01T13:13:31.270Z,476
2018-01-01T13:14:41.266Z,472
2018-01-01T13:15:50.247Z,460
2018-01-01T13:16:58.958Z,428
2018-01-01T13:18:07.760Z,396
2018-01-01T13:19:16.770Z,392
2018-01-01T13:20:25.403Z,376
2018-01-01T13:21:35.050Z,396
2018-01-01T13:22:43.798Z,380
2018-01-01T13:23:53.080Z,312
2018-01-01T13:25:04.140Z,272
2018-01-01T13:26:13.079Z,288
2018-01-01T13:27:22.276Z,404
2018-01-01T13:28:31.216Z,436
2018-01-01T13:29:40.697Z,448
2018-01-01T13:30:50.048Z,468
2018-01-01T13:31:59.243Z,476
2018-01-01T13:33:07.959Z,476
2018-01-01T13:34:18.536Z,484
2018-01-01T13:35:27.608Z,500
2018-01-01T13:36:36.675Z,508
2018-01-01T13:37:47.146Z,496
2018-01-01T13:38:56.183Z,472
2018-01-01T13:40:05.414Z,460
2018-01-01T13:41:15.132Z,448
2018-01-01T13:42:24.320Z,448
2018-01-01T13:43:33.786Z,452
2018-01-01T13:44:44.569Z,448
2018-01-01T13:45:53.666Z,444
2018-01-01T13:47:03.365Z,448
2018-01-01T13:48:13.066Z,408
2018-01-01T13:49:22.874Z,456
2018-01-01T13:50:31.996Z,428
2018-01-01T13:51:41.252Z,372
2018-01-01T13:52:50.487Z,292
2018-01-01T13:53:59.463Z,260
2018-01-01T13:55:09.397Z,260
2018-01-01T13:56:18.898Z,284
2018-01-01T13:57:28.091Z,324
2018-01-01T13:58:37.611Z,348
2018-01-01T13:59:46.820Z,372
2018-01-01T14:00:55.547Z,376
2018-01-01T14:02:04.713Z,364
2018-01-01T14:03:13.388Z,340
2018-01-01T14:04:22.332Z,308
2018-01-01T14:05:32.633Z,288
2018-01-01T14:06:42.306Z,256
2018-01-01T14:07:52.041Z,228
2018-01-01T14:09:03.162Z,184
2018-01-01T14:10:13.218Z,156
2018-01-01T14:11:22.806Z,136
2018-01-01T14:12:31.785Z,120
2018-01-01T14:13:42.160Z,128
2018-01-01T14:14:51.094Z,140
2018-01-01T14:16:00.777Z,136
2018-01-01T14:17:10.409Z,140
2018-01-01T14:18:20.408Z,132
2018-01-01T14:19:29.648Z,120
2018-01-01T14:20:38.619Z,120
2018-01-01T14:21:47.292Z,108
2018-01-01T14:22:56.232Z,108
2018-01-01T14:24:05.584Z,108
2018-01-01T14:25:14.517Z,88
2018-01-01T14:26:23.710Z,80
2018-01-01T14:27:32.643Z,88
2018-01-01T14:28:41.327Z,84
2018-01-01T14:29:49.998Z,80
2018-01-01T14:30:58.993Z,76
2018-01-01T14:32:08.192Z,80
2018-01-01T14:33:17.636Z,80
2018-01-01T14:34:26.827Z,88
2018-01-01T14:35:36.280Z,92
2018-01-01T14:36:45.211Z,88
2018-01-01T14:37:54.134Z,108
2018-01-01T14:39:03.066Z,108
2018-01-01T14:40:12.527Z,84
2018-01-01T14:41:21.204Z,76
2018-01-01T14:42:29.884Z,76
2018-01-01T14:43:38.567Z,84
2018-01-01T14:44:47.503Z,76
2018-01-01T14:45:56.170Z,80
2018-01-01T14:47:04.839Z,72
2018-01-01T14:48:14.298Z,72
2018-01-01T14:49:23.233Z,64
2018-01-01T14:50:31.919Z,64
2018-01-01T14:51:40.861Z,60
2018-01-01T14:52:49.535Z,56
2018-01-01T14:53:58.484Z,60
2018-01-01T14:55:07.469Z,48
2018-01-01T14:56:16.408Z,44
2018-01-01T14:57:25.349Z,36
2018-01-01T14:58:34.540Z,36
2018-01-01T14:59:43.758Z,36
2018-01-01T15:00:52.700Z,32
2018-01-01T15:02:01.683Z,36
2018-01-01T15:03:10.905Z,32
2018-01-01T15:04:20.367Z,32
2018-01-01T15:05:29.298Z,32
2018-01-01T15:06:38.239Z,28
2018-01-01T15:07:46.921Z,28
2018-01-01T15:08:56.380Z,24
2018-01-01T15:10:05.321Z,20
2018-01-01T15:11:13.992Z,20
2018-01-01T15:12:23.181Z,20
2018-01-01T15:13:32.368Z,20
2018-01-01T15:14:41.036Z,24
2018-01-01T15:15:49.968Z,20
2018-01-01T15:16:58.652Z,20
2018-01-01T15:18:07.887Z,20
2018-01-01T15:19:17.433Z,16
2018-01-01T15:20:26.107Z,20
2018-01-01T15:21:35.290Z,16
2018-01-01T15:22:44.223Z,12
2018-01-01T15:23:53.161Z,16
2018-01-01T15:25:01.904Z,12
2018-01-01T15:26:10.590Z,8
2018-01-01T15:27:19.578Z,12
2018-01-01T15:28:28.522Z,8
2018-01-01T15:29:37.449Z,8
2018-01-01T15:30:46.922Z,12
2018-01-01T15:31:55.605Z,8
2018-01-01T15:33:04.533Z,4
2018-01-01T15:34:13.478Z,8
2018-01-01T15:35:22.414Z,8
2018-01-01T15:36:31.097Z,8
2018-01-01T15:37:39.785Z,8
2018-01-01T15:38:48.461Z,8
2018-01-01T15:39:57.916Z,4
2018-01-01T15:41:07.382Z,4
2018-01-01T15:42:16.061Z,4
2018-01-01T15:43:24.996Z,4
2018-01-01T15:44:33.671Z,0
2018-01-01T15:45:42.611Z,0
2018-01-01T15:46:51.543Z,4
2018-01-01T15:48:00.486Z,4
2018-01-01T15:49:09.419Z,4
2018-01-01T15:50:18.353Z,4
2018-01-01T15:51:27.294Z,4
2018-01-01T15:52:36.230Z,4
2018-01-01T15:53:45.179Z,0
2018-01-01T15:54:54.382Z,0
2018-01-01T15:56:03.648Z,0
2018-01-01T15:57:12.584Z,0
2018-01-01T15:58:21.273Z,0
2018-01-01T15:59:30.719Z,0
2018-01-01T16:00:39.646Z,0
2018-01-01T16:01:48.852Z,0
2018-01-01T16:02:58.047Z,0
2018-01-01T16:04:06.990Z,0
2018-01-01T16:05:15.670Z,0
2018-01-01T16:06:24.874Z,0
2018-01-01T16:07:34.065Z,0
2018-01-01T16:08:43.005Z,0
2018-01-01T16:09:51.937Z,0
2018-01-01T16:11:01.188Z,0
2018-01-01T16:12:10.395Z,0
2018-01-01T16:13:19.332Z,0
2018-01-01T16:14:28.592Z,0
2018-01-01T16:15:37.266Z,0
2018-01-01T16:16:46.467Z,0
2018-01-01T16:17:55.667Z,0
2018-01-01T16:19:05.119Z,0
2018-01-01T16:20:14.052Z,0
2018-01-01T16:21:23.250Z,0
2018-01-01T16:22:32.194Z,0
2018-01-01T16:23:41.389Z,0
2018-01-01T16:24:50.137Z,0
2018-01-01T16:25:59.070Z,0
2018-01-01T16:27:08.287Z,0
2018-01-01T16:28:16.968Z,0
2018-01-01T16:29:26.171Z,0